SAS1044 ESSA-ESNQ
Flight info
| Callsign | SAS1044 |
|---|---|
| Flight time | 1h 19m |
| Altitude | 39000 |
| Route | RESNA DCT OSK DCT OSKIR DCT VAGAS |
| Aircraft | A20N/M-SDE2E3FGHIRWXY/LB1 |
Departure
| Time | 2026-04-20 19:17 |
|---|---|
| Airport | Stockholm-Arlanda Airport (ESSA) |
Arrival
| Time | 2026-04-20 20:37 |
|---|---|
| Airport | Kiruna Airport (ESNQ) |
| Time | Latitude | Longitude | Altitude | Speed | Heading |
|---|---|---|---|---|---|
| 2026-04-20 18:53 | 59.65396 | 17.93531 | 141 ft | 0 kts | 75° |
| 2026-04-20 19:07 | 59.65396 | 17.93530 | 140 ft | 1 kts | 75° |
| 2026-04-20 19:07 | 59.65390 | 17.93487 | 140 ft | 4 kts | 75° |
| 2026-04-20 19:08 | 59.65383 | 17.93436 | 140 ft | 3 kts | 75° |
| 2026-04-20 19:08 | 59.65357 | 17.93387 | 140 ft | 3 kts | 345° |
| 2026-04-20 19:08 | 59.65344 | 17.93394 | 140 ft | 0 kts | 345° |
| 2026-04-20 19:14 | 59.65352 | 17.93390 | 140 ft | 4 kts | 345° |
| 2026-04-20 19:14 | 59.65398 | 17.93366 | 140 ft | 9 kts | 345° |
| 2026-04-20 19:14 | 59.65458 | 17.93339 | 140 ft | 9 kts | 354° |
| 2026-04-20 19:15 | 59.65525 | 17.93330 | 140 ft | 10 kts | 348° |
| 2026-04-20 19:15 | 59.65592 | 17.93300 | 141 ft | 10 kts | 348° |
| 2026-04-20 19:15 | 59.65652 | 17.93343 | 141 ft | 10 kts | 48° |
| 2026-04-20 19:15 | 59.65698 | 17.93441 | 141 ft | 10 kts | 46° |
| 2026-04-20 19:16 | 59.65719 | 17.93484 | 141 ft | 3 kts | 47° |
| 2026-04-20 19:16 | 59.65740 | 17.93529 | 141 ft | 8 kts | 47° |
| 2026-04-20 19:16 | 59.65787 | 17.93626 | 141 ft | 10 kts | 42° |
| 2026-04-20 19:16 | 59.65847 | 17.93693 | 141 ft | 10 kts | 48° |
| 2026-04-20 19:17 | 59.65873 | 17.93864 | 140 ft | 35 kts | 77° |
| 2026-04-20 19:17 | 59.65993 | 17.94786 | 141 ft | 103 kts | 76° |
| 2026-04-20 19:17 | 59.66219 | 17.96580 | 212 ft | 155 kts | 74° |
| 2026-04-20 19:17 | 59.66470 | 17.98617 | 938 ft | 148 kts | 74° |
| 2026-04-20 19:18 | 59.66662 | 18.00623 | 1641 ft | 156 kts | 78° |
| 2026-04-20 19:18 | 59.66927 | 18.02891 | 2033 ft | 181 kts | 65° |
| 2026-04-20 19:18 | 59.67708 | 18.04935 | 2517 ft | 197 kts | 34° |
| 2026-04-20 19:18 | 59.68997 | 18.05907 | 3325 ft | 203 kts | 13° |
| 2026-04-20 19:19 | 59.70404 | 18.06378 | 4260 ft | 206 kts | 10° |
| 2026-04-20 19:19 | 59.71837 | 18.06602 | 5147 ft | 212 kts | 359° |
| 2026-04-20 19:19 | 59.73336 | 18.06033 | 5779 ft | 232 kts | 347° |
| 2026-04-20 19:19 | 59.74947 | 18.05033 | 6320 ft | 251 kts | 345° |
| 2026-04-20 19:20 | 59.76659 | 18.04148 | 7104 ft | 256 kts | 356° |
| 2026-04-20 19:20 | 59.78446 | 18.04134 | 7981 ft | 258 kts | 7° |
| 2026-04-20 19:20 | 59.80247 | 18.04477 | 8906 ft | 262 kts | 9° |
| 2026-04-20 19:20 | 59.82067 | 18.04867 | 9862 ft | 265 kts | 9° |
| 2026-04-20 19:21 | 59.83920 | 18.05267 | 10733 ft | 272 kts | 9° |
| 2026-04-20 19:21 | 59.85875 | 18.05694 | 11168 ft | 294 kts | 9° |
| 2026-04-20 19:21 | 59.87971 | 18.06150 | 11770 ft | 309 kts | 9° |
| 2026-04-20 19:21 | 59.90129 | 18.06612 | 12603 ft | 316 kts | 9° |
| 2026-04-20 19:22 | 59.92332 | 18.07084 | 13506 ft | 321 kts | 9° |
| 2026-04-20 19:22 | 59.94567 | 18.07564 | 14392 ft | 325 kts | 9° |
| 2026-04-20 19:22 | 59.96837 | 18.08053 | 15183 ft | 330 kts | 9° |
| 2026-04-20 19:22 | 59.99137 | 18.08550 | 15964 ft | 335 kts | 9° |
| 2026-04-20 19:23 | 60.01463 | 18.09053 | 16725 ft | 339 kts | 9° |
| 2026-04-20 19:23 | 60.03824 | 18.09565 | 17480 ft | 343 kts | 9° |
| 2026-04-20 19:23 | 60.06217 | 18.10085 | 18247 ft | 348 kts | 10° |
| 2026-04-20 19:23 | 60.08637 | 18.10611 | 18964 ft | 352 kts | 10° |
| 2026-04-20 19:24 | 60.11088 | 18.11146 | 19604 ft | 356 kts | 10° |
| 2026-04-20 19:24 | 60.13569 | 18.11688 | 20251 ft | 361 kts | 10° |
| 2026-04-20 19:24 | 60.16079 | 18.12236 | 20899 ft | 365 kts | 11° |
| 2026-04-20 19:24 | 60.18618 | 18.12792 | 21541 ft | 369 kts | 11° |
| 2026-04-20 19:25 | 60.21184 | 18.13355 | 22160 ft | 373 kts | 11° |
| 2026-04-20 19:25 | 60.23771 | 18.13923 | 22782 ft | 377 kts | 11° |
| 2026-04-20 19:25 | 60.26393 | 18.14499 | 23379 ft | 381 kts | 11° |
| 2026-04-20 19:25 | 60.29044 | 18.15040 | 23962 ft | 385 kts | 11° |
| 2026-04-20 19:26 | 60.31723 | 18.15564 | 24439 ft | 389 kts | 11° |
| 2026-04-20 19:26 | 60.34426 | 18.16092 | 24916 ft | 392 kts | 11° |
| 2026-04-20 19:26 | 60.37145 | 18.16626 | 25388 ft | 395 kts | 11° |
| 2026-04-20 19:26 | 60.39891 | 18.17168 | 25855 ft | 397 kts | 11° |
| 2026-04-20 19:27 | 60.42653 | 18.17716 | 26310 ft | 400 kts | 11° |
| 2026-04-20 19:27 | 60.45433 | 18.18269 | 26755 ft | 403 kts | 11° |
| 2026-04-20 19:27 | 60.48196 | 18.18820 | 27187 ft | 406 kts | 11° |
| 2026-04-20 19:27 | 60.51014 | 18.19383 | 27612 ft | 408 kts | 11° |
| 2026-04-20 19:28 | 60.53851 | 18.19952 | 28028 ft | 411 kts | 11° |
| 2026-04-20 19:28 | 60.56700 | 18.20523 | 28435 ft | 414 kts | 11° |
| 2026-04-20 19:28 | 60.59578 | 18.21102 | 28838 ft | 416 kts | 11° |
| 2026-04-20 19:28 | 60.62470 | 18.21684 | 29231 ft | 419 kts | 11° |
| 2026-04-20 19:29 | 60.65372 | 18.22270 | 29616 ft | 421 kts | 11° |
| 2026-04-20 19:29 | 60.68299 | 18.22861 | 29985 ft | 424 kts | 11° |
| 2026-04-20 19:29 | 60.71246 | 18.23458 | 30321 ft | 427 kts | 11° |
| 2026-04-20 19:29 | 60.74210 | 18.24060 | 30649 ft | 429 kts | 11° |
| 2026-04-20 19:30 | 60.77192 | 18.24665 | 30944 ft | 432 kts | 11° |
| 2026-04-20 19:30 | 60.80189 | 18.25275 | 31253 ft | 434 kts | 11° |
| 2026-04-20 19:30 | 60.83201 | 18.25889 | 31564 ft | 435 kts | 10° |
| 2026-04-20 19:30 | 60.86213 | 18.26503 | 31978 ft | 434 kts | 10° |
| 2026-04-20 19:31 | 60.89220 | 18.27117 | 32383 ft | 433 kts | 10° |
| 2026-04-20 19:31 | 60.92217 | 18.27731 | 32792 ft | 432 kts | 10° |
| 2026-04-20 19:31 | 60.95208 | 18.28345 | 33162 ft | 432 kts | 10° |
| 2026-04-20 19:31 | 60.98196 | 18.28960 | 33534 ft | 431 kts | 10° |
| 2026-04-20 19:32 | 61.01180 | 18.29576 | 33867 ft | 431 kts | 10° |
| 2026-04-20 19:32 | 61.04160 | 18.30193 | 34229 ft | 430 kts | 9° |
| 2026-04-20 19:32 | 61.07136 | 18.30809 | 34534 ft | 430 kts | 9° |
| 2026-04-20 19:32 | 61.10110 | 18.31426 | 34825 ft | 429 kts | 9° |
| 2026-04-20 19:33 | 61.13078 | 18.32043 | 35107 ft | 428 kts | 9° |
| 2026-04-20 19:33 | 61.16048 | 18.32663 | 35295 ft | 430 kts | 9° |
| 2026-04-20 19:33 | 61.19027 | 18.33285 | 35500 ft | 431 kts | 9° |
| 2026-04-20 19:33 | 61.22009 | 18.33909 | 35771 ft | 430 kts | 9° |
| 2026-04-20 19:34 | 61.24983 | 18.34531 | 36049 ft | 429 kts | 9° |
| 2026-04-20 19:34 | 61.27955 | 18.35154 | 36315 ft | 428 kts | 9° |
| 2026-04-20 19:34 | 61.30920 | 18.35778 | 36557 ft | 428 kts | 8° |
| 2026-04-20 19:34 | 61.33879 | 18.36402 | 36798 ft | 427 kts | 8° |
| 2026-04-20 19:35 | 61.36837 | 18.37026 | 37025 ft | 427 kts | 8° |
| 2026-04-20 19:35 | 61.39793 | 18.37652 | 37243 ft | 427 kts | 8° |
| 2026-04-20 19:35 | 61.42741 | 18.38276 | 37460 ft | 427 kts | 8° |
| 2026-04-20 19:35 | 61.45694 | 18.38903 | 37675 ft | 426 kts | 8° |
| 2026-04-20 19:36 | 61.48645 | 18.39531 | 37889 ft | 426 kts | 8° |
| 2026-04-20 19:36 | 61.51594 | 18.40160 | 38103 ft | 426 kts | 8° |
| 2026-04-20 19:36 | 61.54540 | 18.40789 | 38298 ft | 425 kts | 8° |
| 2026-04-20 19:36 | 61.57485 | 18.41419 | 38493 ft | 425 kts | 8° |
| 2026-04-20 19:37 | 61.60388 | 18.42041 | 38671 ft | 425 kts | 8° |
| 2026-04-20 19:37 | 61.63328 | 18.42673 | 38882 ft | 424 kts | 8° |
| 2026-04-20 19:37 | 61.66264 | 18.43304 | 39054 ft | 424 kts | 8° |
| 2026-04-20 19:37 | 61.69199 | 18.43937 | 39193 ft | 424 kts | 8° |
| 2026-04-20 19:38 | 61.72133 | 18.44571 | 39307 ft | 424 kts | 8° |
| 2026-04-20 19:38 | 61.78020 | 18.45847 | 39411 ft | 427 kts | 8° |
| 2026-04-20 19:39 | 61.83918 | 18.47129 | 39409 ft | 425 kts | 8° |
| 2026-04-20 19:39 | 61.89803 | 18.48413 | 39402 ft | 425 kts | 8° |
| 2026-04-20 19:40 | 61.95678 | 18.49701 | 39409 ft | 425 kts | 8° |
| 2026-04-20 19:40 | 62.01556 | 18.50994 | 39409 ft | 425 kts | 8° |
| 2026-04-20 19:41 | 62.07434 | 18.52292 | 39405 ft | 425 kts | 8° |
| 2026-04-20 19:41 | 62.13311 | 18.53595 | 39409 ft | 424 kts | 8° |
| 2026-04-20 19:42 | 62.19186 | 18.54903 | 39399 ft | 424 kts | 8° |
| 2026-04-20 19:42 | 62.25053 | 18.56214 | 39402 ft | 424 kts | 8° |
| 2026-04-20 19:43 | 62.30922 | 18.57530 | 39394 ft | 424 kts | 8° |
| 2026-04-20 19:43 | 62.36793 | 18.58852 | 39405 ft | 424 kts | 8° |
| 2026-04-20 19:44 | 62.42657 | 18.60178 | 39386 ft | 424 kts | 8° |
| 2026-04-20 19:44 | 62.48539 | 18.61513 | 39394 ft | 425 kts | 8° |
| 2026-04-20 19:45 | 62.54429 | 18.62856 | 39396 ft | 425 kts | 7° |
| 2026-04-20 19:45 | 62.60302 | 18.64199 | 39390 ft | 425 kts | 7° |
| 2026-04-20 19:46 | 62.66182 | 18.65550 | 39391 ft | 425 kts | 7° |
| 2026-04-20 19:46 | 62.72021 | 18.66896 | 39395 ft | 425 kts | 7° |
| 2026-04-20 19:47 | 62.77898 | 18.68257 | 39402 ft | 425 kts | 7° |
| 2026-04-20 19:47 | 62.83768 | 18.69622 | 39388 ft | 424 kts | 7° |
| 2026-04-20 19:48 | 62.89632 | 18.70990 | 39388 ft | 423 kts | 7° |
| 2026-04-20 19:48 | 62.95489 | 18.72363 | 39386 ft | 423 kts | 7° |
| 2026-04-20 19:49 | 63.01345 | 18.73741 | 39390 ft | 423 kts | 7° |
| 2026-04-20 19:49 | 63.07202 | 18.75124 | 39395 ft | 423 kts | 7° |
| 2026-04-20 19:50 | 63.13058 | 18.76514 | 39394 ft | 423 kts | 7° |
| 2026-04-20 19:50 | 63.18906 | 18.77906 | 39393 ft | 422 kts | 7° |
| 2026-04-20 19:51 | 63.24744 | 18.79303 | 39400 ft | 422 kts | 7° |
| 2026-04-20 19:51 | 63.30576 | 18.80703 | 39378 ft | 422 kts | 7° |
| 2026-04-20 19:52 | 63.36414 | 18.82110 | 39374 ft | 422 kts | 7° |
| 2026-04-20 19:52 | 63.42252 | 18.83524 | 39374 ft | 422 kts | 7° |
| 2026-04-20 19:53 | 63.48089 | 18.84943 | 39374 ft | 422 kts | 7° |
| 2026-04-20 19:53 | 63.53926 | 18.86367 | 39382 ft | 422 kts | 7° |
| 2026-04-20 19:54 | 63.59761 | 18.87797 | 39388 ft | 422 kts | 7° |
| 2026-04-20 19:54 | 63.65597 | 18.89233 | 39394 ft | 422 kts | 7° |
| 2026-04-20 19:55 | 63.70450 | 18.90432 | 39401 ft | 422 kts | 7° |
| 2026-04-20 19:55 | 63.77229 | 18.92114 | 39424 ft | 422 kts | 7° |
| 2026-04-20 19:56 | 63.82111 | 18.93329 | 39425 ft | 421 kts | 7° |
| 2026-04-20 19:56 | 63.88880 | 18.95022 | 39425 ft | 421 kts | 7° |
| 2026-04-20 19:57 | 63.94705 | 18.96486 | 39428 ft | 421 kts | 7° |
| 2026-04-20 19:57 | 64.00528 | 18.97955 | 39427 ft | 421 kts | 7° |
| 2026-04-20 19:58 | 64.06353 | 18.99431 | 39422 ft | 421 kts | 7° |
| 2026-04-20 19:58 | 64.12178 | 19.00913 | 39425 ft | 421 kts | 7° |
| 2026-04-20 19:59 | 64.17999 | 19.02401 | 39428 ft | 421 kts | 7° |
| 2026-04-20 19:59 | 64.23812 | 19.03892 | 39427 ft | 421 kts | 7° |
| 2026-04-20 20:00 | 64.29635 | 19.05393 | 39431 ft | 421 kts | 7° |
| 2026-04-20 20:00 | 64.35449 | 19.06897 | 39432 ft | 421 kts | 7° |
| 2026-04-20 20:01 | 64.41269 | 19.08410 | 39431 ft | 420 kts | 7° |
| 2026-04-20 20:01 | 64.47076 | 19.09925 | 39430 ft | 420 kts | 7° |
| 2026-04-20 20:02 | 64.52886 | 19.11448 | 39427 ft | 420 kts | 7° |
| 2026-04-20 20:02 | 64.58690 | 19.12976 | 39427 ft | 420 kts | 7° |
| 2026-04-20 20:03 | 64.64502 | 19.14512 | 39427 ft | 420 kts | 7° |
| 2026-04-20 20:03 | 64.70310 | 19.16054 | 39428 ft | 420 kts | 7° |
| 2026-04-20 20:04 | 64.76115 | 19.17602 | 39427 ft | 419 kts | 7° |
| 2026-04-20 20:04 | 64.81912 | 19.19155 | 39432 ft | 419 kts | 7° |
| 2026-04-20 20:05 | 64.86727 | 19.20450 | 39435 ft | 419 kts | 7° |
| 2026-04-20 20:05 | 64.92527 | 19.22015 | 39436 ft | 419 kts | 7° |
| 2026-04-20 20:06 | 64.98325 | 19.23587 | 39433 ft | 419 kts | 7° |
| 2026-04-20 20:06 | 65.04123 | 19.25166 | 39433 ft | 419 kts | 6° |
| 2026-04-20 20:07 | 65.09918 | 19.26751 | 39433 ft | 419 kts | 6° |
| 2026-04-20 20:07 | 65.15718 | 19.28344 | 39435 ft | 420 kts | 6° |
| 2026-04-20 20:08 | 65.21530 | 19.29948 | 39433 ft | 420 kts | 6° |
| 2026-04-20 20:08 | 65.27305 | 19.31548 | 39430 ft | 421 kts | 6° |
| 2026-04-20 20:09 | 65.33120 | 19.33167 | 39433 ft | 421 kts | 6° |
| 2026-04-20 20:09 | 65.38935 | 19.34793 | 39438 ft | 421 kts | 6° |
| 2026-04-20 20:10 | 65.44745 | 19.36425 | 39388 ft | 421 kts | 6° |
| 2026-04-20 20:10 | 65.50561 | 19.38066 | 39374 ft | 421 kts | 6° |
| 2026-04-20 20:11 | 65.56375 | 19.39713 | 39373 ft | 421 kts | 6° |
| 2026-04-20 20:11 | 65.62196 | 19.41370 | 39374 ft | 421 kts | 6° |
| 2026-04-20 20:12 | 65.68011 | 19.43033 | 39379 ft | 421 kts | 6° |
| 2026-04-20 20:12 | 65.73823 | 19.44703 | 39390 ft | 421 kts | 6° |
| 2026-04-20 20:13 | 65.79644 | 19.46382 | 39080 ft | 421 kts | 6° |
| 2026-04-20 20:13 | 65.82551 | 19.47224 | 38813 ft | 421 kts | 6° |
| 2026-04-20 20:13 | 65.85458 | 19.48068 | 38537 ft | 421 kts | 6° |
| 2026-04-20 20:13 | 65.88367 | 19.48914 | 38263 ft | 421 kts | 6° |
| 2026-04-20 20:14 | 65.91280 | 19.49763 | 38011 ft | 422 kts | 6° |
| 2026-04-20 20:14 | 65.94195 | 19.50615 | 37746 ft | 422 kts | 6° |
| 2026-04-20 20:14 | 65.97104 | 19.51467 | 37234 ft | 421 kts | 5° |
| 2026-04-20 20:14 | 66.00022 | 19.52324 | 36588 ft | 423 kts | 5° |
| 2026-04-20 20:15 | 66.02955 | 19.53186 | 35920 ft | 426 kts | 4° |
| 2026-04-20 20:15 | 66.05903 | 19.54055 | 35273 ft | 427 kts | 4° |
| 2026-04-20 20:15 | 66.08864 | 19.54930 | 34627 ft | 430 kts | 4° |
| 2026-04-20 20:15 | 66.11842 | 19.55811 | 33880 ft | 432 kts | 4° |
| 2026-04-20 20:16 | 66.14792 | 19.56687 | 33167 ft | 433 kts | 3° |
| 2026-04-20 20:16 | 66.17788 | 19.57579 | 32461 ft | 434 kts | 3° |
| 2026-04-20 20:16 | 66.20790 | 19.58475 | 31743 ft | 435 kts | 3° |
| 2026-04-20 20:16 | 66.23803 | 19.59376 | 30985 ft | 437 kts | 3° |
| 2026-04-20 20:17 | 66.26832 | 19.60283 | 30163 ft | 440 kts | 2° |
| 2026-04-20 20:17 | 66.29870 | 19.61197 | 29455 ft | 438 kts | 3° |
| 2026-04-20 20:17 | 66.32872 | 19.62106 | 28978 ft | 432 kts | 3° |
| 2026-04-20 20:17 | 66.35838 | 19.63005 | 28414 ft | 427 kts | 3° |
| 2026-04-20 20:18 | 66.38776 | 19.63895 | 27857 ft | 423 kts | 3° |
| 2026-04-20 20:18 | 66.41684 | 19.64778 | 27295 ft | 419 kts | 3° |
| 2026-04-20 20:18 | 66.44559 | 19.65653 | 26738 ft | 415 kts | 3° |
| 2026-04-20 20:18 | 66.47418 | 19.66524 | 26194 ft | 412 kts | 3° |
| 2026-04-20 20:19 | 66.50253 | 19.67390 | 25648 ft | 409 kts | 3° |
| 2026-04-20 20:19 | 66.53065 | 19.68251 | 25102 ft | 407 kts | 3° |
| 2026-04-20 20:19 | 66.55870 | 19.69111 | 24547 ft | 405 kts | 3° |
| 2026-04-20 20:19 | 66.58660 | 19.69969 | 23978 ft | 403 kts | 3° |
| 2026-04-20 20:20 | 66.61436 | 19.70824 | 23355 ft | 400 kts | 3° |
| 2026-04-20 20:20 | 66.64188 | 19.71675 | 22801 ft | 396 kts | 3° |
| 2026-04-20 20:20 | 66.66909 | 19.72519 | 22260 ft | 392 kts | 3° |
| 2026-04-20 20:20 | 66.69603 | 19.73356 | 21718 ft | 388 kts | 3° |
| 2026-04-20 20:21 | 66.72271 | 19.74186 | 21161 ft | 385 kts | 3° |
| 2026-04-20 20:21 | 66.74916 | 19.75011 | 20618 ft | 381 kts | 3° |
| 2026-04-20 20:21 | 66.77534 | 19.75829 | 20081 ft | 378 kts | 3° |
| 2026-04-20 20:21 | 66.80133 | 19.76643 | 19547 ft | 375 kts | 3° |
| 2026-04-20 20:22 | 66.82715 | 19.77452 | 19020 ft | 372 kts | 3° |
| 2026-04-20 20:22 | 66.85270 | 19.78255 | 18465 ft | 369 kts | 3° |
| 2026-04-20 20:22 | 66.87807 | 19.79055 | 17913 ft | 365 kts | 3° |
| 2026-04-20 20:22 | 66.90313 | 19.79847 | 17404 ft | 361 kts | 3° |
| 2026-04-20 20:23 | 66.92788 | 19.80631 | 16891 ft | 356 kts | 4° |
| 2026-04-20 20:23 | 66.95235 | 19.81407 | 16383 ft | 352 kts | 4° |
| 2026-04-20 20:23 | 66.97658 | 19.82176 | 15901 ft | 349 kts | 3° |
| 2026-04-20 20:23 | 67.00057 | 19.82939 | 15387 ft | 346 kts | 3° |
| 2026-04-20 20:24 | 67.02432 | 19.83696 | 14896 ft | 342 kts | 3° |
| 2026-04-20 20:24 | 67.04782 | 19.84447 | 14399 ft | 340 kts | 3° |
| 2026-04-20 20:24 | 67.07117 | 19.85195 | 13870 ft | 336 kts | 3° |
| 2026-04-20 20:24 | 67.09424 | 19.85936 | 13395 ft | 332 kts | 3° |
| 2026-04-20 20:25 | 67.11708 | 19.86670 | 12912 ft | 329 kts | 4° |
| 2026-04-20 20:25 | 67.13965 | 19.87396 | 12440 ft | 327 kts | 4° |
| 2026-04-20 20:25 | 67.16218 | 19.88122 | 11967 ft | 325 kts | 4° |
| 2026-04-20 20:25 | 67.18447 | 19.88842 | 11503 ft | 322 kts | 4° |
| 2026-04-20 20:26 | 67.20667 | 19.89560 | 11021 ft | 321 kts | 4° |
| 2026-04-20 20:26 | 67.22847 | 19.90270 | 10831 ft | 309 kts | 4° |
| 2026-04-20 20:26 | 67.24925 | 19.90952 | 10746 ft | 293 kts | 4° |
| 2026-04-20 20:26 | 67.26879 | 19.91593 | 10638 ft | 280 kts | 4° |
| 2026-04-20 20:27 | 67.28791 | 19.92217 | 10347 ft | 276 kts | 4° |
| 2026-04-20 20:27 | 67.30693 | 19.92833 | 9935 ft | 275 kts | 4° |
| 2026-04-20 20:27 | 67.31976 | 19.93249 | 9694 ft | 275 kts | 4° |
| 2026-04-20 20:27 | 67.34486 | 19.94067 | 9241 ft | 274 kts | 4° |
| 2026-04-20 20:28 | 67.35761 | 19.94484 | 9013 ft | 274 kts | 4° |
| 2026-04-20 20:28 | 67.38258 | 19.95303 | 8554 ft | 272 kts | 5° |
| 2026-04-20 20:28 | 67.40128 | 19.95919 | 8210 ft | 271 kts | 5° |
| 2026-04-20 20:28 | 67.41994 | 19.96534 | 7867 ft | 269 kts | 5° |
| 2026-04-20 20:29 | 67.43850 | 19.97147 | 7534 ft | 268 kts | 5° |
| 2026-04-20 20:29 | 67.45694 | 19.97757 | 7191 ft | 267 kts | 5° |
| 2026-04-20 20:29 | 67.47532 | 19.98366 | 6856 ft | 266 kts | 6° |
| 2026-04-20 20:29 | 67.49359 | 19.98973 | 6504 ft | 263 kts | 5° |
| 2026-04-20 20:30 | 67.51168 | 19.99575 | 6152 ft | 261 kts | 5° |
| 2026-04-20 20:30 | 67.52965 | 20.00174 | 5829 ft | 259 kts | 5° |
| 2026-04-20 20:30 | 67.54716 | 20.00760 | 5630 ft | 249 kts | 5° |
| 2026-04-20 20:30 | 67.56402 | 20.01325 | 5418 ft | 238 kts | 5° |
| 2026-04-20 20:31 | 67.57997 | 20.01862 | 5166 ft | 227 kts | 5° |
| 2026-04-20 20:31 | 67.59522 | 20.02375 | 4906 ft | 212 kts | 5° |
| 2026-04-20 20:31 | 67.60936 | 20.02853 | 4640 ft | 199 kts | 4° |
| 2026-04-20 20:31 | 67.62302 | 20.03310 | 4321 ft | 197 kts | 3° |
| 2026-04-20 20:32 | 67.63657 | 20.03761 | 4077 ft | 196 kts | 3° |
| 2026-04-20 20:32 | 67.65016 | 20.04342 | 3939 ft | 201 kts | 11° |
| 2026-04-20 20:32 | 67.66306 | 20.05873 | 3906 ft | 205 kts | 25° |
| 2026-04-20 20:32 | 67.67514 | 20.07877 | 3903 ft | 201 kts | 28° |
| 2026-04-20 20:33 | 67.68630 | 20.09852 | 3897 ft | 188 kts | 29° |
| 2026-04-20 20:33 | 67.69711 | 20.11761 | 3902 ft | 186 kts | 28° |
| 2026-04-20 20:33 | 67.70788 | 20.13654 | 3899 ft | 186 kts | 28° |
| 2026-04-20 20:33 | 67.71867 | 20.15541 | 3758 ft | 185 kts | 28° |
| 2026-04-20 20:34 | 67.72902 | 20.17356 | 3525 ft | 177 kts | 28° |
| 2026-04-20 20:34 | 67.73910 | 20.19127 | 3255 ft | 166 kts | 28° |
| 2026-04-20 20:34 | 67.74817 | 20.20731 | 3036 ft | 150 kts | 27° |
| 2026-04-20 20:34 | 67.75655 | 20.22203 | 2832 ft | 142 kts | 27° |
| 2026-04-20 20:35 | 67.76466 | 20.23615 | 2657 ft | 142 kts | 28° |
| 2026-04-20 20:35 | 67.77290 | 20.25047 | 2488 ft | 142 kts | 29° |
| 2026-04-20 20:35 | 67.78114 | 20.26486 | 2324 ft | 142 kts | 30° |
| 2026-04-20 20:35 | 67.78937 | 20.27934 | 2109 ft | 142 kts | 31° |
| 2026-04-20 20:36 | 67.79755 | 20.29368 | 1882 ft | 141 kts | 32° |
| 2026-04-20 20:36 | 67.80569 | 20.30803 | 1683 ft | 140 kts | 33° |
| 2026-04-20 20:36 | 67.81380 | 20.32234 | 1486 ft | 140 kts | 33° |
| 2026-04-20 20:36 | 67.82126 | 20.33557 | 1456 ft | 108 kts | 34° |
| 2026-04-20 20:37 | 67.82603 | 20.34399 | 1458 ft | 56 kts | 34° |
| 2026-04-20 20:37 | 67.82789 | 20.34723 | 1458 ft | 11 kts | 21° |
| 2026-04-20 20:37 | 67.82830 | 20.34761 | 1458 ft | 4 kts | 55° |
| 2026-04-20 20:37 | 67.82820 | 20.34799 | 1458 ft | 3 kts | 176° |
| 2026-04-20 20:38 | 67.82788 | 20.34742 | 1453 ft | 8 kts | 216° |
| 2026-04-20 20:38 | 67.82734 | 20.34635 | 1458 ft | 12 kts | 216° |
| 2026-04-20 20:38 | 67.82657 | 20.34497 | 1458 ft | 15 kts | 214° |
| 2026-04-20 20:38 | 67.82570 | 20.34342 | 1458 ft | 15 kts | 213° |
| 2026-04-20 20:39 | 67.82482 | 20.34186 | 1458 ft | 15 kts | 214° |
| 2026-04-20 20:39 | 67.82406 | 20.34044 | 1456 ft | 10 kts | 226° |
| 2026-04-20 20:39 | 67.82409 | 20.33889 | 1456 ft | 9 kts | 302° |
| 2026-04-20 20:39 | 67.82439 | 20.33764 | 1456 ft | 7 kts | 302° |
| 2026-04-20 20:40 | 67.82459 | 20.33661 | 1458 ft | 5 kts | 287° |
| 2026-04-20 20:40 | 67.82461 | 20.33588 | 1458 ft | 3 kts | 264° |
| 2026-04-20 20:40 | 67.82460 | 20.33578 | 1458 ft | 0 kts | 261° |
| 2026-04-20 20:40 | 67.82459 | 20.33567 | 1458 ft | 1 kts | 257° |
| 2026-04-20 20:41 | 67.82453 | 20.33528 | 1457 ft | 5 kts | 241° |
| 2026-04-20 20:41 | 67.82432 | 20.33441 | 1458 ft | 5 kts | 268° |
| 2026-04-20 20:41 | 67.82449 | 20.33355 | 1455 ft | 5 kts | 303° |
| 2026-04-20 20:41 | 67.82471 | 20.33342 | 1458 ft | 2 kts | 33° |
| 2026-04-20 20:42 | 67.82477 | 20.33372 | 1458 ft | 2 kts | 58° |
| 2026-04-20 20:42 | 67.82478 | 20.33376 | 1458 ft | 0 kts | 58° |